Lost Springs, Kansas
Current Conditions -  °F | °C
As of 5:58 PM on Thursday 27 Nov 2014 (Local Time) from KFRI Reporting Station
Clear Clear  
Wind Chill: 35°   Ceiling: Unl
Heat Index: 39°   Visibility: 10mi
Dew Point: 14°   Wind: 6mph
Humidity: 36%   Direction: 160°SSE
Pressure: 30.28"   Gusts: NA
Location:  38.57°N, 96.97°W
Report Text: KFRI 272358Z AUTO 16005KT 10SM CLR 04/M10 A3028 RMK AO2 DZB2319 SLP265 P0000 60000 T00411100 10077 20011 57017
Loading
Personal Weather Stations






























Interactive Weather Map New forecast layout! Learn more

10-Day Weather Forecast

Advertisements
Track Severe Weather on mobile